createdAt,value
2022-11-06T00:02:42.023Z,88.80
2022-11-06T00:06:08.140Z,88.94
2022-11-06T00:09:22.108Z,89.74
2022-11-06T00:12:30.312Z,90.51
2022-11-06T00:15:38.500Z,89.81
2022-11-06T00:18:47.186Z,89.42
2022-11-06T00:21:55.417Z,89.47
2022-11-06T00:25:07.140Z,89.59
2022-11-06T00:28:15.664Z,89.25
2022-11-06T00:31:27.478Z,89.42
2022-11-06T00:34:36.183Z,89.11
2022-11-06T00:37:44.686Z,89.15
2022-11-06T00:40:54.301Z,89.12
2022-11-06T00:44:04.228Z,89.11
2022-11-06T00:47:12.980Z,88.75
2022-11-06T00:50:21.236Z,89.54
2022-11-06T00:53:32.372Z,89.94
2022-11-06T00:56:42.952Z,89.92
2022-11-06T00:59:52.588Z,89.37
2022-11-06T01:03:04.068Z,89.77
2022-11-06T01:06:15.934Z,89.38
2022-11-06T01:09:27.165Z,89.23
2022-11-06T01:12:45.539Z,89.81
2022-11-06T01:15:54.157Z,89.05
2022-11-06T01:19:05.190Z,89.23
2022-11-06T01:22:15.842Z,88.72
2022-11-06T01:25:25.394Z,88.05
2022-11-06T01:28:36.895Z,87.66
2022-11-06T01:31:51.389Z,88.65
2022-11-06T01:34:59.631Z,89.18
2022-11-06T01:38:07.967Z,89.21
2022-11-06T01:41:20.108Z,89.28
2022-11-06T01:45:24.787Z,89.62
2022-11-06T01:48:34.319Z,89.49
2022-11-06T01:51:49.268Z,89.35
2022-11-06T01:55:07.837Z,89.41
2022-11-06T01:58:21.419Z,89.94
2022-11-06T02:01:31.228Z,89.94
2022-11-06T02:04:43.861Z,89.58
2022-11-06T02:07:53.497Z,89.54
2022-11-06T02:11:02.851Z,87.75
2022-11-06T02:14:21.018Z,88.27
2022-11-06T02:17:48.166Z,88.83
2022-11-06T02:21:27.374Z,89.05
2022-11-06T02:25:06.062Z,89.11
2022-11-06T02:28:25.967Z,89.18
2022-11-06T02:31:40.531Z,89.45
2022-11-06T02:34:52.889Z,89.52
2022-11-06T02:38:07.334Z,89.26
2022-11-06T02:41:23.085Z,89.63
2022-11-06T02:44:38.900Z,89.29
2022-11-06T02:47:54.402Z,89.61
2022-11-06T02:51:06.557Z,89.71
2022-11-06T02:54:19.599Z,89.93
2022-11-06T02:57:33.093Z,89.23
2022-11-06T03:00:48.971Z,87.96
2022-11-06T03:04:04.135Z,88.33
2022-11-06T03:07:19.661Z,89.35
2022-11-06T03:10:35.705Z,89.83
2022-11-06T03:13:55.660Z,89.99
2022-11-06T03:17:16.044Z,90.09
2022-11-06T03:20:36.581Z,89.69
2022-11-06T03:23:54.165Z,89.78
2022-11-06T03:27:08.563Z,89.98
2022-11-06T03:30:17.222Z,90.45
2022-11-06T03:33:37.274Z,90.62
2022-11-06T03:36:51.660Z,90.14
2022-11-06T03:40:10.577Z,89.19
2022-11-06T03:43:27.396Z,89.43
2022-11-06T03:46:41.358Z,88.68
2022-11-06T03:49:58.950Z,89.17
2022-11-06T03:53:14.521Z,89.05
2022-11-06T03:56:30.712Z,89.03
2022-11-06T04:04:58.545Z,89.16
2022-11-06T04:08:28.176Z,89.63
2022-11-06T04:11:57.636Z,89.13
2022-11-06T04:15:13.742Z,89.63
2022-11-06T04:18:22.263Z,89.01
2022-11-06T04:21:52.800Z,89.20
2022-11-06T04:25:38.073Z,89.49
2022-11-06T04:28:58.333Z,89.15
2022-11-06T04:32:18.388Z,89.57
2022-11-06T04:35:36.122Z,88.74
2022-11-06T04:39:00.346Z,89.31
2022-11-06T04:42:21.678Z,88.65
2022-11-06T04:45:36.115Z,89.55
2022-11-06T04:48:47.920Z,89.53
2022-11-06T04:51:57.861Z,90.01
2022-11-06T04:55:09.682Z,89.30
2022-11-06T04:58:17.937Z,90.03
2022-11-06T05:01:27.402Z,89.42
2022-11-06T05:04:35.951Z,88.99
2022-11-06T05:07:45.103Z,89.52
2022-11-06T05:10:54.918Z,89.40
2022-11-06T05:14:03.257Z,89.16
2022-11-06T05:17:11.888Z,89.53
2022-11-06T05:20:20.821Z,89.85
2022-11-06T05:23:28.014Z,89.14
2022-11-06T05:26:37.644Z,89.20
2022-11-06T05:29:49.278Z,89.04
2022-11-06T05:32:58.076Z,89.26
2022-11-06T05:36:07.995Z,90.22
2022-11-06T05:39:20.673Z,90.09
2022-11-06T05:42:30.664Z,89.27
2022-11-06T05:45:39.065Z,88.94
2022-11-06T05:48:47.266Z,88.81
2022-11-06T05:51:56.107Z,89.50
2022-11-06T05:55:05.408Z,89.62
2022-11-06T05:58:18.557Z,90.23
2022-11-06T06:01:27.660Z,89.98
2022-11-06T06:04:36.393Z,89.53
2022-11-06T06:07:47.471Z,90.14
2022-11-06T06:10:59.100Z,89.47
2022-11-06T06:14:08.851Z,89.50
2022-11-06T06:17:17.555Z,90.17
2022-11-06T06:20:25.941Z,89.80
2022-11-06T06:23:34.128Z,89.72
2022-11-06T06:26:42.573Z,90.13
2022-11-06T06:29:52.886Z,90.71
2022-11-06T06:33:06.729Z,90.19
2022-11-06T06:36:17.161Z,90.02
2022-11-06T06:39:25.409Z,89.85
2022-11-06T06:42:34.344Z,89.89
2022-11-06T06:45:44.122Z,90.58
2022-11-06T06:48:52.421Z,90.31
2022-11-06T06:52:00.606Z,90.66
2022-11-06T06:55:10.066Z,90.69
2022-11-06T06:58:18.424Z,90.30
2022-11-06T07:01:28.186Z,90.30
2022-11-06T07:04:36.473Z,89.30
2022-11-06T07:07:44.739Z,89.89
2022-11-06T07:10:53.139Z,89.91
2022-11-06T07:14:01.664Z,89.63
2022-11-06T07:17:11.283Z,89.25
2022-11-06T07:20:19.850Z,88.75
2022-11-06T07:23:28.031Z,88.58
2022-11-06T07:26:38.386Z,87.60
2022-11-06T07:29:46.891Z,88.87
2022-11-06T07:32:56.979Z,87.65
2022-11-06T07:36:07.232Z,86.74
2022-11-06T07:39:15.522Z,86.17
2022-11-06T07:42:23.723Z,86.80
2022-11-06T07:45:43.116Z,88.36
2022-11-06T07:48:55.708Z,89.19
2022-11-06T07:52:06.026Z,88.60
2022-11-06T07:55:14.234Z,87.38
2022-11-06T07:58:24.353Z,86.63
2022-11-06T08:01:33.013Z,85.44
2022-11-06T08:04:43.442Z,85.13
2022-11-06T08:07:57.764Z,84.77
2022-11-06T08:11:07.596Z,84.75
2022-11-06T08:18:01.418Z,85.45
2022-11-06T08:21:11.349Z,83.16
2022-11-06T08:24:22.168Z,82.05
2022-11-06T08:27:30.872Z,82.71
2022-11-06T08:30:39.235Z,81.57
2022-11-06T08:33:47.868Z,80.91
2022-11-06T08:36:57.716Z,79.62
2022-11-06T08:40:08.774Z,79.75
2022-11-06T08:43:18.974Z,80.38
2022-11-06T08:46:27.577Z,79.50
2022-11-06T08:49:35.938Z,80.45
2022-11-06T08:52:47.021Z,79.56
2022-11-06T08:55:55.850Z,79.24
2022-11-06T08:59:04.498Z,78.44
2022-11-06T09:02:15.318Z,78.49
2022-11-06T09:05:23.862Z,78.22
2022-11-06T09:08:34.786Z,79.37
2022-11-06T09:11:43.512Z,76.71
2022-11-06T09:14:52.438Z,77.26
2022-11-06T09:18:01.210Z,77.23
2022-11-06T09:21:12.113Z,77.74
2022-11-06T09:24:43.177Z,76.27
2022-11-06T09:27:58.885Z,76.73
2022-11-06T09:31:08.218Z,74.83
2022-11-06T09:34:16.617Z,75.54
2022-11-06T09:37:25.050Z,75.15
2022-11-06T09:40:39.284Z,73.80
2022-11-06T09:44:13.972Z,73.63
2022-11-06T09:47:33.086Z,73.42
2022-11-06T09:50:50.406Z,73.92
2022-11-06T09:54:07.274Z,72.13
2022-11-06T09:57:28.580Z,72.86
2022-11-06T10:00:37.295Z,72.13
2022-11-06T10:03:56.020Z,71.63
2022-11-06T10:07:05.467Z,71.85
2022-11-06T10:10:19.585Z,70.83
2022-11-06T10:13:57.149Z,70.69
2022-11-06T10:17:22.071Z,71.05
2022-11-06T10:20:35.968Z,69.64
2022-11-06T10:23:51.316Z,68.99
2022-11-06T10:26:59.946Z,68.70
2022-11-06T10:30:15.166Z,70.75
2022-11-06T10:33:41.994Z,69.97
2022-11-06T10:36:56.396Z,70.68
2022-11-06T10:40:13.319Z,70.69
2022-11-06T10:43:31.668Z,69.72
2022-11-06T10:46:49.669Z,68.60
2022-11-06T10:50:02.183Z,69.14
2022-11-06T10:53:26.313Z,70.40
2022-11-06T10:56:55.470Z,68.62
2022-11-06T11:00:07.017Z,69.84
2022-11-06T11:03:28.071Z,69.33
2022-11-06T11:06:42.358Z,69.01
2022-11-06T11:09:51.016Z,69.39
2022-11-06T11:13:06.915Z,70.49
2022-11-06T11:16:19.708Z,72.02
2022-11-06T11:19:38.218Z,72.38
2022-11-06T11:22:47.394Z,72.97
2022-11-06T11:26:13.373Z,72.81
2022-11-06T11:29:27.771Z,73.29
2022-11-06T11:32:36.094Z,73.44
2022-11-06T11:35:51.548Z,72.22
2022-11-06T11:39:01.028Z,71.19
2022-11-06T11:42:26.909Z,70.98
2022-11-06T11:45:35.292Z,71.78
2022-11-06T11:48:47.104Z,71.66
2022-11-06T11:51:59.762Z,72.16
2022-11-06T11:55:18.213Z,71.51
2022-11-06T11:58:30.741Z,70.90
2022-11-06T12:01:42.837Z,70.06
2022-11-06T12:04:56.401Z,71.50
2022-11-06T12:08:14.237Z,70.38
2022-11-06T12:11:27.466Z,70.97
2022-11-06T12:14:38.549Z,70.77
2022-11-06T12:17:54.259Z,71.14
2022-11-06T12:21:08.636Z,71.22
2022-11-06T12:24:24.624Z,70.28
2022-11-06T12:27:40.062Z,71.45
2022-11-06T12:30:58.052Z,71.84
2022-11-06T12:34:20.094Z,71.94
2022-11-06T12:37:43.257Z,71.57
2022-11-06T12:41:04.831Z,70.57
2022-11-06T12:44:17.240Z,70.95
2022-11-06T12:47:42.988Z,70.67
2022-11-06T12:51:00.708Z,69.63
2022-11-06T12:54:38.623Z,69.20
2022-11-06T12:58:08.511Z,69.15
2022-11-06T13:01:31.194Z,68.97
2022-11-06T13:04:55.385Z,68.59
2022-11-06T13:08:28.774Z,69.13
2022-11-06T13:11:48.786Z,68.51
2022-11-06T13:15:16.146Z,68.67
2022-11-06T13:18:32.302Z,68.80
2022-11-06T13:22:10.833Z,69.11
2022-11-06T13:25:28.885Z,69.93
2022-11-06T13:28:44.310Z,70.26
2022-11-06T13:32:00.540Z,68.68
2022-11-06T13:35:18.282Z,68.95
2022-11-06T13:38:33.840Z,69.12
2022-11-06T13:41:42.191Z,70.07
2022-11-06T13:44:53.172Z,70.67
2022-11-06T13:48:24.516Z,70.00
2022-11-06T13:51:48.644Z,70.93
2022-11-06T13:55:11.976Z,70.16
2022-11-06T13:58:49.543Z,69.33
2022-11-06T14:02:21.149Z,69.66
2022-11-06T14:06:05.447Z,69.46
2022-11-06T14:09:21.099Z,68.78
2022-11-06T14:12:30.450Z,69.17
2022-11-06T14:15:42.213Z,69.88
2022-11-06T14:18:58.265Z,69.44
2022-11-06T14:22:32.061Z,69.50
2022-11-06T14:25:59.137Z,70.28
2022-11-06T14:30:01.213Z,70.33
2022-11-06T14:33:33.708Z,70.65
2022-11-06T14:36:42.389Z,71.78
2022-11-06T14:40:15.075Z,71.93
2022-11-06T14:43:30.818Z,72.24
2022-11-06T14:46:39.606Z,72.71
2022-11-06T14:49:54.911Z,72.47
2022-11-06T14:53:17.475Z,73.42
2022-11-06T14:56:31.907Z,73.49
2022-11-06T14:59:43.452Z,73.81
2022-11-06T15:02:55.531Z,74.03
2022-11-06T15:06:22.314Z,74.73
2022-11-06T15:09:47.727Z,75.13
2022-11-06T15:13:13.413Z,75.60
2022-11-06T15:16:25.387Z,76.17
2022-11-06T15:19:42.589Z,76.91
2022-11-06T15:23:14.002Z,77.37
2022-11-06T15:26:31.290Z,78.36
2022-11-06T15:29:58.588Z,78.91
2022-11-06T15:33:17.004Z,79.43
2022-11-06T15:36:27.529Z,79.33
2022-11-06T15:39:42.911Z,79.99
2022-11-06T15:42:51.938Z,80.82
2022-11-06T15:46:19.360Z,81.16
2022-11-06T15:49:28.197Z,81.21
2022-11-06T15:52:36.896Z,81.64
2022-11-06T15:55:53.592Z,82.50
2022-11-06T15:59:12.934Z,82.57
2022-11-06T16:02:23.884Z,82.79
2022-11-06T16:05:37.591Z,83.21
2022-11-06T16:08:46.873Z,83.55
2022-11-06T16:11:57.056Z,83.64
2022-11-06T16:15:06.373Z,83.73
2022-11-06T16:18:23.739Z,84.07
2022-11-06T16:21:35.477Z,84.28
2022-11-06T16:24:50.132Z,84.50
2022-11-06T16:27:58.951Z,84.59
2022-11-06T16:31:14.608Z,84.58
2022-11-06T16:34:44.339Z,85.17
2022-11-06T16:37:53.146Z,84.88
2022-11-06T16:41:01.613Z,85.19
2022-11-06T16:44:30.884Z,85.18
2022-11-06T16:47:40.168Z,85.19
2022-11-06T16:50:53.362Z,85.44
2022-11-06T16:54:03.690Z,85.78
2022-11-06T16:57:17.788Z,85.36
2022-11-06T17:00:31.164Z,86.00
2022-11-06T17:03:48.108Z,85.82
2022-11-06T17:06:59.649Z,85.82
2022-11-06T17:10:41.437Z,86.42
2022-11-06T17:13:52.695Z,86.09
2022-11-06T17:17:03.358Z,85.68
2022-11-06T17:20:16.415Z,85.81
2022-11-06T17:23:29.299Z,86.26
2022-11-06T17:26:44.650Z,86.11
2022-11-06T17:29:53.254Z,86.32
2022-11-06T17:33:01.567Z,86.50
2022-11-06T17:36:18.610Z,86.21
2022-11-06T17:39:28.483Z,86.07
2022-11-06T17:42:37.846Z,86.19
2022-11-06T17:45:49.724Z,86.26
2022-11-06T17:48:58.597Z,85.91
2022-11-06T17:52:07.195Z,86.25
2022-11-06T17:55:17.148Z,86.72
2022-11-06T17:58:25.342Z,85.85
2022-11-06T18:01:33.989Z,86.28
2022-11-06T18:04:42.949Z,86.56
2022-11-06T18:07:51.438Z,85.83
2022-11-06T18:11:03.883Z,86.55
2022-11-06T18:14:13.315Z,86.28
2022-11-06T18:17:25.007Z,85.89
2022-11-06T18:20:33.330Z,86.41
2022-11-06T18:23:41.558Z,86.70
2022-11-06T18:26:51.560Z,86.69
2022-11-06T18:29:59.953Z,86.41
2022-11-06T18:33:08.239Z,86.66
2022-11-06T18:36:17.706Z,86.93
2022-11-06T18:39:25.970Z,86.26
2022-11-06T18:42:36.571Z,86.52
2022-11-06T18:45:44.813Z,86.81
2022-11-06T18:48:53.442Z,86.29
2022-11-06T18:52:01.640Z,86.16
2022-11-06T18:55:10.779Z,86.51
2022-11-06T18:58:21.501Z,85.97
2022-11-06T19:01:30.012Z,86.41
2022-11-06T19:04:38.445Z,86.29
2022-11-06T19:07:51.999Z,85.93
2022-11-06T19:11:04.865Z,85.86
2022-11-06T19:14:14.472Z,86.12
2022-11-06T19:17:22.957Z,86.05
2022-11-06T19:20:32.442Z,85.36
2022-11-06T19:23:45.697Z,85.64
2022-11-06T19:26:54.104Z,85.75
2022-11-06T19:30:04.026Z,85.39
2022-11-06T19:33:13.900Z,85.10
2022-11-06T19:36:23.082Z,85.04
2022-11-06T19:39:31.450Z,84.54
2022-11-06T19:42:40.296Z,84.49
2022-11-06T19:45:52.572Z,84.99
2022-11-06T19:49:01.023Z,85.16
2022-11-06T19:52:42.895Z,84.72
2022-11-06T19:55:40.235Z,84.44
2022-11-06T19:58:50.168Z,83.88
2022-11-06T20:02:00.054Z,83.50
2022-11-06T20:05:09.345Z,84.05
2022-11-06T20:08:17.676Z,83.75
2022-11-06T20:11:26.292Z,84.03
2022-11-06T20:14:34.933Z,84.12
2022-11-06T20:17:44.647Z,84.37
2022-11-06T20:20:53.184Z,84.53
2022-11-06T20:24:01.626Z,83.97
2022-11-06T20:27:13.934Z,83.85
2022-11-06T20:30:22.490Z,83.99
2022-11-06T20:33:32.178Z,83.53
2022-11-06T20:36:43.593Z,83.57
2022-11-06T20:39:54.210Z,83.59
2022-11-06T20:43:03.407Z,82.47
2022-11-06T20:46:14.583Z,82.98
2022-11-06T20:49:24.784Z,83.36
2022-11-06T20:52:34.069Z,83.21
2022-11-06T20:55:42.456Z,83.12
2022-11-06T20:58:54.064Z,83.20
2022-11-06T21:02:02.530Z,82.58
2022-11-06T21:05:14.867Z,79.39
2022-11-06T21:08:23.532Z,78.82
2022-11-06T21:11:32.079Z,77.35
2022-11-06T21:14:40.677Z,75.20
2022-11-06T21:17:49.294Z,75.29
2022-11-06T21:21:02.705Z,74.79
2022-11-06T21:24:11.696Z,74.84
2022-11-06T21:27:25.563Z,74.27
2022-11-06T21:30:34.317Z,74.50
2022-11-06T21:33:50.155Z,74.21
2022-11-06T21:37:02.831Z,73.58
2022-11-06T21:40:17.535Z,72.67
2022-11-06T21:43:25.928Z,71.54
2022-11-06T21:46:41.179Z,72.10
2022-11-06T21:49:54.844Z,71.87
2022-11-06T21:53:22.024Z,70.40
2022-11-06T21:56:30.753Z,69.97
2022-11-06T21:59:41.779Z,69.70
2022-11-06T22:02:51.193Z,68.13
2022-11-06T22:06:07.002Z,66.95
2022-11-06T22:09:21.977Z,62.62
2022-11-06T22:12:34.941Z,63.34
2022-11-06T22:15:43.644Z,62.31
2022-11-06T22:18:52.024Z,62.94
2022-11-06T22:22:00.289Z,61.95
2022-11-06T22:25:10.971Z,61.97
2022-11-06T22:28:19.197Z,61.82
2022-11-06T22:31:29.252Z,62.42
2022-11-06T22:34:37.423Z,61.61
2022-11-06T22:37:45.687Z,62.78
2022-11-06T22:40:57.347Z,60.69
2022-11-06T22:44:06.527Z,61.79
2022-11-06T22:47:15.035Z,61.46
2022-11-06T22:50:23.340Z,61.46
2022-11-06T22:53:34.117Z,59.41
2022-11-06T22:56:43.820Z,61.76
2022-11-06T22:59:52.142Z,64.08
2022-11-06T23:03:00.565Z,65.35
2022-11-06T23:06:11.006Z,67.36
2022-11-06T23:09:19.512Z,68.16
2022-11-06T23:12:29.342Z,69.43
2022-11-06T23:15:38.167Z,69.58
2022-11-06T23:18:46.545Z,70.33
2022-11-06T23:22:15.362Z,70.49
2022-11-06T23:25:24.121Z,71.16
2022-11-06T23:28:34.398Z,71.47
2022-11-06T23:31:43.347Z,71.68
2022-11-06T23:34:53.190Z,71.37
2022-11-06T23:38:02.255Z,70.27
2022-11-06T23:41:32.425Z,69.72
2022-11-06T23:44:59.771Z,70.36
2022-11-06T23:48:13.406Z,70.30
2022-11-06T23:51:23.382Z,70.11
2022-11-06T23:54:31.642Z,70.22
2022-11-06T23:57:40.786Z,71.13
